Time;durP1;ratioP1;P1;durP2;ratioP2;P2;SDS_P1;SDS_P2;PMS_P1;PMS_P2;Temp;Humidity;BMP_temperature;BMP_pressure;BME280_temperature;BME280_humidity;BME280_pressure;Samples;Min_cycle;Max_cycle;Signal;HPM_P1;HPM_P2
2023/06/05 00:02:00;;;;;;;4.65;2.97;;;14.80;56.40;;;;;;5074751;28;20119;-65
2023/06/05 00:04:27;;;;;;;3.70;2.50;;;14.70;56.40;;;;;;5115826;27;20136;-65
2023/06/05 00:06:53;;;;;;;5.28;2.67;;;14.70;56.40;;;;;;5091940;28;20051;-65
2023/06/05 00:09:19;;;;;;;3.50;2.45;;;14.70;56.40;;;;;;5119194;27;20036;-65
2023/06/05 00:11:45;;;;;;;4.80;3.28;;;14.60;56.30;;;;;;5120879;27;20044;-65
2023/06/05 00:14:11;;;;;;;3.95;3.00;;;14.60;56.40;;;;;;5091991;28;20036;-65
2023/06/05 00:16:36;;;;;;;5.47;3.13;;;14.60;56.40;;;;;;5075282;28;20417;-65
2023/06/05 00:19:02;;;;;;;3.97;2.50;;;14.60;56.40;;;;;;5116042;27;20036;-65
2023/06/05 00:21:29;;;;;;;5.97;2.50;;;14.60;56.40;;;;;;5091971;28;20552;-67
2023/06/05 00:23:54;;;;;;;3.63;2.83;;;14.60;56.40;;;;;;5092068;28;20043;-69
2023/06/05 00:26:20;;;;;;;3.78;2.65;;;14.50;56.30;;;;;;5092420;28;20391;-69
2023/06/05 00:28:47;;;;;;;4.45;2.90;;;14.50;56.40;;;;;;5115698;27;20503;-69
2023/06/05 00:31:13;;;;;;;4.68;2.90;;;14.50;56.40;;;;;;5093257;28;20530;-68
2023/06/05 00:33:39;;;;;;;3.65;2.92;;;14.50;56.40;;;;;;5121993;27;20451;-68
2023/06/05 00:36:05;;;;;;;4.13;2.55;;;14.50;56.50;;;;;;5092981;28;20039;-68
2023/06/05 00:38:32;;;;;;;4.10;3.10;;;14.40;56.50;;;;;;5114920;27;20041;-68
2023/06/05 00:40:57;;;;;;;5.35;2.70;;;14.40;56.50;;;;;;5091650;28;20065;-68
2023/06/05 00:43:23;;;;;;;5.20;3.28;;;14.40;56.60;;;;;;5112401;27;20094;-68
2023/06/05 00:45:52;;;;;;;2.88;2.28;;;14.40;56.60;;;;;;5074633;28;20117;-68
2023/06/05 00:48:18;;;;;;;4.10;2.67;;;14.30;56.60;;;;;;5115933;27;20040;-68
2023/06/05 00:50:45;;;;;;;5.53;2.80;;;14.30;56.60;;;;;;5091641;28;21289;-68
2023/06/05 00:53:12;;;;;;;4.07;2.58;;;14.30;56.60;;;;;;5094929;28;20036;-68
2023/06/05 00:55:37;;;;;;;4.85;3.00;;;14.30;56.70;;;;;;5091179;28;20072;-68
2023/06/05 00:58:04;;;;;;;4.30;2.83;;;14.30;56.70;;;;;;5091571;28;20036;-68
2023/06/05 01:00:30;;;;;;;4.35;3.33;;;14.30;56.70;;;;;;5091694;28;20034;-69
2023/06/05 01:02:56;;;;;;;3.17;2.65;;;14.20;56.80;;;;;;5120103;27;20036;-69
2023/06/05 01:05:23;;;;;;;5.15;3.10;;;14.20;56.80;;;;;;5112145;27;20040;-68
2023/06/05 01:07:49;;;;;;;4.28;3.05;;;14.20;56.80;;;;;;5117165;27;20098;-68
2023/06/05 01:10:16;;;;;;;4.40;3.03;;;14.10;56.90;;;;;;5118704;27;20029;-68
2023/06/05 01:13:01;;;;;;;4.38;3.30;;;14.10;57.00;;;;;;5115211;27;20076;-68
2023/06/05 01:15:29;;;;;;;4.47;3.20;;;14.10;57.00;;;;;;5112692;27;20040;-68
2023/06/05 01:17:57;;;;;;;3.60;2.60;;;14.10;57.10;;;;;;5072177;28;20044;-68
2023/06/05 01:20:22;;;;;;;4.30;3.30;;;14.00;57.10;;;;;;5091278;28;20046;-68
2023/06/05 01:22:54;;;;;;;4.28;2.83;;;14.00;57.10;;;;;;5121913;27;20472;-68
2023/06/05 01:25:21;;;;;;;4.10;3.20;;;14.00;57.20;;;;;;5090946;28;20127;-68
2023/06/05 01:27:55;;;;;;;3.35;2.88;;;14.00;57.20;;;;;;5074432;28;20513;-68
2023/06/05 01:30:30;;;;;;;5.60;3.53;;;14.00;57.30;;;;;;5090600;28;20093;-68
2023/06/05 01:33:30;;;;;;;4.80;3.17;;;13.90;57.20;;;;;;5119526;27;20078;-68
2023/06/05 01:36:04;;;;;;;4.95;2.50;;;13.90;57.20;;;;;;5086086;28;20048;-69
2023/06/05 01:38:34;;;;;;;3.65;2.63;;;13.80;57.20;;;;;;5085312;28;20040;-69
2023/06/05 01:41:02;;;;;;;6.40;2.75;;;13.80;57.20;;;;;;5090836;28;20039;-68
2023/06/05 01:43:28;;;;;;;4.07;3.10;;;13.80;57.20;;;;;;5120775;27;20044;-68
2023/06/05 01:45:56;;;;;;;5.13;3.80;;;13.80;57.20;;;;;;5071090;28;20055;-68
2023/06/05 01:48:27;;;;;;;4.38;2.92;;;13.80;57.20;;;;;;5090986;28;20044;-68
2023/06/05 01:51:02;;;;;;;5.15;2.70;;;13.80;57.20;;;;;;5122351;28;20040;-68
2023/06/05 01:53:29;;;;;;;3.75;2.83;;;13.80;57.20;;;;;;5090776;28;20032;-65
2023/06/05 01:55:58;;;;;;;4.63;3.17;;;13.70;57.20;;;;;;5089263;28;20567;-66
2023/06/05 01:58:24;;;;;;;3.13;2.40;;;13.70;57.20;;;;;;5123753;28;20056;-66
2023/06/05 02:00:52;;;;;;;3.15;2.80;;;13.70;57.20;;;;;;5091396;28;20107;-65
2023/06/05 02:03:18;;;;;;;6.95;3.42;;;13.70;57.20;;;;;;5073593;28;20471;-66
2023/06/05 02:05:44;;;;;;;6.43;3.97;;;13.60;57.20;;;;;;5090301;28;20039;-65
2023/06/05 02:08:10;;;;;;;3.72;3.33;;;13.60;57.30;;;;;;5120094;28;20047;-65
2023/06/05 02:10:43;;;;;;;4.10;3.53;;;13.60;57.30;;;;;;5090110;28;20044;-65
2023/06/05 02:13:09;;;;;;;4.18;3.28;;;13.60;57.40;;;;;;5117648;28;20483;-66
2023/06/05 02:15:35;;;;;;;3.58;2.97;;;13.60;57.50;;;;;;5091450;28;20049;-65
2023/06/05 02:18:02;;;;;;;5.68;4.10;;;13.60;57.60;;;;;;5090401;28;20040;-65
2023/06/05 02:20:28;;;;;;;3.70;3.00;;;13.50;57.70;;;;;;5090113;28;20494;-65
2023/06/05 02:22:54;;;;;;;4.10;3.17;;;13.50;57.70;;;;;;5122155;28;20078;-65
2023/06/05 02:25:21;;;;;;;4.22;3.35;;;13.50;57.80;;;;;;5119875;28;20071;-66
2023/06/05 02:27:47;;;;;;;4.03;2.80;;;13.50;57.80;;;;;;5111549;27;20039;-65
2023/06/05 02:30:13;;;;;;;4.10;3.00;;;13.50;57.90;;;;;;5093958;28;20123;-65
2023/06/05 02:32:43;;;;;;;4.93;3.88;;;13.50;57.90;;;;;;5126086;27;20123;-65
2023/06/05 02:35:13;;;;;;;3.97;2.90;;;13.50;58.10;;;;;;5078763;28;20127;-65
2023/06/05 02:37:43;;;;;;;4.03;3.00;;;13.40;58.10;;;;;;5093502;28;20036;-65
2023/06/05 02:40:13;;;;;;;6.47;4.10;;;13.40;58.20;;;;;;5077491;28;20060;-68
2023/06/05 02:42:40;;;;;;;5.13;3.10;;;13.40;58.40;;;;;;5120822;27;20048;-69
2023/06/05 02:45:07;;;;;;;3.92;3.38;;;13.40;58.50;;;;;;5093837;28;20044;-68
2023/06/05 02:47:33;;;;;;;5.95;3.80;;;13.40;58.60;;;;;;5114529;27;20055;-69
2023/06/05 02:50:00;;;;;;;8.18;5.70;;;13.30;58.70;;;;;;5095109;28;20111;-68
2023/06/05 02:52:25;;;;;;;5.90;4.28;;;13.40;59.00;;;;;;5079321;28;20052;-68
2023/06/05 02:54:51;;;;;;;5.00;3.72;;;13.30;59.10;;;;;;5093014;28;20095;-65
2023/06/05 02:57:17;;;;;;;5.45;4.15;;;13.30;59.20;;;;;;5122006;27;20044;-65
2023/06/05 02:59:46;;;;;;;5.05;4.15;;;13.30;59.30;;;;;;5093140;28;20040;-65
2023/06/05 03:02:12;;;;;;;5.85;4.20;;;13.30;59.30;;;;;;5093846;28;20058;-65
2023/06/05 03:04:42;;;;;;;4.63;3.42;;;13.30;59.40;;;;;;5094393;28;20406;-65
2023/06/05 03:07:09;;;;;;;5.43;4.05;;;13.30;59.40;;;;;;5126063;27;20044;-65
2023/06/05 03:09:36;;;;;;;4.03;3.13;;;13.30;59.40;;;;;;5127940;27;20044;-67
2023/06/05 03:12:02;;;;;;;5.43;3.63;;;13.30;59.30;;;;;;5093270;28;20559;-68
2023/06/05 03:14:27;;;;;;;4.40;3.55;;;13.30;59.30;;;;;;5076744;28;20115;-68
2023/06/05 03:16:53;;;;;;;4.55;4.15;;;13.30;59.30;;;;;;5093824;28;20067;-68
2023/06/05 03:19:19;;;;;;;4.68;3.78;;;13.30;59.30;;;;;;5093726;28;20040;-68
2023/06/05 03:21:45;;;;;;;6.13;4.38;;;13.30;59.40;;;;;;5093268;28;20048;-68
2023/06/05 03:24:14;;;;;;;4.53;3.83;;;13.30;59.40;;;;;;5093639;28;20056;-68
2023/06/05 03:26:40;;;;;;;5.45;4.00;;;13.30;59.40;;;;;;5094017;28;20043;-69
2023/06/05 03:29:07;;;;;;;4.82;3.92;;;13.30;59.40;;;;;;5093305;28;20044;-69
2023/06/05 03:31:33;;;;;;;5.70;4.47;;;13.30;59.50;;;;;;5117967;27;20209;-69
2023/06/05 03:33:59;;;;;;;5.93;4.13;;;13.30;59.50;;;;;;5092603;28;20040;-68
2023/06/05 03:36:28;;;;;;;6.07;4.55;;;13.30;59.60;;;;;;5123135;27;20032;-68
2023/06/05 03:38:59;;;;;;;6.32;4.18;;;13.30;59.70;;;;;;5092391;28;20051;-68
2023/06/05 03:41:25;;;;;;;6.53;5.00;;;13.30;59.70;;;;;;5121211;27;20044;-68
2023/06/05 03:43:52;;;;;;;8.25;6.50;;;13.30;59.80;;;;;;5091742;28;20040;-69
2023/06/05 03:46:18;;;;;;;5.82;4.47;;;13.30;60.00;;;;;;5117751;27;20125;-68
2023/06/05 03:48:56;;;;;;;5.30;4.28;;;13.30;60.20;;;;;;5075940;28;20046;-68
2023/06/05 03:51:22;;;;;;;7.35;5.32;;;13.30;60.10;;;;;;5093788;28;20040;-65
2023/06/05 03:53:54;;;;;;;6.05;4.22;;;13.30;60.30;;;;;;5092508;28;20110;-65
2023/06/05 03:56:21;;;;;;;5.38;4.00;;;13.30;60.30;;;;;;5075502;28;20051;-69
2023/06/05 03:58:48;;;;;;;5.20;3.83;;;13.30;60.40;;;;;;5117248;27;20044;-68
2023/06/05 04:01:14;;;;;;;7.18;5.40;;;13.30;60.50;;;;;;5093549;28;20134;-69
2023/06/05 04:03:40;;;;;;;5.25;4.40;;;13.30;60.50;;;;;;5115571;27;20129;-68
2023/06/05 04:06:06;;;;;;;4.90;3.78;;;13.30;60.80;;;;;;5092388;28;20067;-68
2023/06/05 04:08:32;;;;;;;5.65;4.88;;;13.30;60.90;;;;;;5118285;27;20051;-68
2023/06/05 04:10:58;;;;;;;8.73;6.38;;;13.30;60.90;;;;;;5092291;28;20047;-68
2023/06/05 04:13:24;;;;;;;7.15;6.25;;;13.30;61.30;;;;;;5114332;27;20032;-68
2023/06/05 04:15:50;;;;;;;7.78;5.70;;;13.30;61.70;;;;;;5094099;28;20103;-68
2023/06/05 04:18:16;;;;;;;6.85;5.70;;;13.30;61.90;;;;;;5092169;28;20078;-68
2023/06/05 04:20:42;;;;;;;6.00;5.30;;;13.30;62.20;;;;;;5092145;28;20102;-68
2023/06/05 04:23:08;;;;;;;6.85;5.65;;;13.30;62.20;;;;;;5112185;27;20044;-68
2023/06/05 04:25:33;;;;;;;9.15;6.40;;;13.30;62.70;;;;;;5091994;28;20082;-68
2023/06/05 04:27:59;;;;;;;9.30;6.43;;;13.30;62.90;;;;;;5092212;28;20068;-69
2023/06/05 04:30:25;;;;;;;7.40;5.40;;;13.30;63.00;;;;;;5091935;28;20044;-69
2023/06/05 04:32:56;;;;;;;7.60;6.45;;;13.30;63.00;;;;;;5074810;28;20067;-69
2023/06/05 04:35:23;;;;;;;7.57;5.30;;;13.30;63.00;;;;;;5074507;28;20068;-68
2023/06/05 04:37:50;;;;;;;7.00;5.68;;;13.30;63.30;;;;;;5075508;28;20047;-68
2023/06/05 04:40:17;;;;;;;7.80;6.55;;;13.30;63.50;;;;;;5093106;28;20111;-68
2023/06/05 04:42:42;;;;;;;9.65;6.80;;;13.40;63.80;;;;;;5091582;28;20082;-69
2023/06/05 04:45:09;;;;;;;8.32;6.97;;;13.40;64.20;;;;;;5075071;28;20040;-69
2023/06/05 04:47:34;;;;;;;8.75;6.68;;;13.40;64.50;;;;;;5075972;28;20115;-69
2023/06/05 04:50:05;;;;;;;7.50;6.50;;;13.50;64.60;;;;;;5120091;27;20602;-69
2023/06/05 04:52:39;;;;;;;10.15;8.13;;;13.50;65.00;;;;;;5056232;28;20507;-69
2023/06/05 04:55:06;;;;;;;9.45;6.40;;;13.40;65.50;;;;;;5091276;28;20046;-68
2023/06/05 04:57:32;;;;;;;8.82;7.13;;;13.40;65.50;;;;;;5091895;28;20074;-68
2023/06/05 04:59:58;;;;;;;8.98;7.15;;;13.50;65.70;;;;;;5091567;28;20463;-68
2023/06/05 05:02:24;;;;;;;8.23;6.50;;;13.50;65.80;;;;;;5111325;27;20118;-68
2023/06/05 05:04:49;;;;;;;8.88;7.78;;;13.50;66.40;;;;;;5091535;28;20123;-68
2023/06/05 05:07:16;;;;;;;8.70;6.47;;;13.60;66.40;;;;;;5121707;27;20043;-69
2023/06/05 05:09:42;;;;;;;9.40;7.85;;;13.60;66.70;;;;;;5091371;28;20055;-68
2023/06/05 05:12:09;;;;;;;9.00;7.82;;;13.60;67.30;;;;;;5074396;28;20036;-68
2023/06/05 05:14:36;;;;;;;8.77;6.55;;;13.70;67.80;;;;;;5091524;28;20436;-68
2023/06/05 05:17:03;;;;;;;9.98;7.05;;;13.80;67.80;;;;;;5122012;27;20043;-68
2023/06/05 05:19:29;;;;;;;7.57;6.50;;;14.00;68.00;;;;;;5088606;28;20059;-68
2023/06/05 05:21:55;;;;;;;8.23;7.30;;;14.20;67.90;;;;;;5091015;28;20100;-69
2023/06/05 05:24:21;;;;;;;8.20;6.50;;;14.50;67.40;;;;;;5091448;28;20119;-69
2023/06/05 05:26:46;;;;;;;8.80;6.90;;;14.80;66.80;;;;;;5090983;28;20040;-69
2023/06/05 05:29:12;;;;;;;9.32;5.85;;;15.10;66.10;;;;;;5073837;28;20047;-69
2023/06/05 05:31:38;;;;;;;8.43;6.20;;;15.40;64.80;;;;;;5090495;28;20037;-69
2023/06/05 05:34:04;;;;;;;8.55;6.28;;;15.70;63.70;;;;;;5122725;27;20043;-66
2023/06/05 05:36:29;;;;;;;7.88;6.32;;;15.90;63.00;;;;;;5091950;28;20039;-66
2023/06/05 05:38:55;;;;;;;8.73;6.97;;;16.30;61.90;;;;;;5073814;28;20094;-65
2023/06/05 05:41:21;;;;;;;11.23;7.72;;;16.50;61.10;;;;;;5090284;28;20052;-66
2023/06/05 05:43:47;;;;;;;7.78;6.97;;;16.60;59.50;;;;;;5087813;28;20036;-66
2023/06/05 05:46:13;;;;;;;6.28;5.65;;;16.80;59.20;;;;;;5091647;28;20388;-66
2023/06/05 05:48:39;;;;;;;6.68;5.97;;;16.90;59.00;;;;;;5117611;27;20532;-66
2023/06/05 05:51:06;;;;;;;7.50;5.68;;;17.00;58.70;;;;;;5091546;28;20131;-65
2023/06/05 05:53:32;;;;;;;6.43;5.15;;;17.30;58.30;;;;;;5073651;28;20046;-65
2023/06/05 05:55:58;;;;;;;7.57;6.00;;;17.50;57.60;;;;;;5090346;28;20579;-65
2023/06/05 05:58:24;;;;;;;7.45;5.80;;;17.80;57.10;;;;;;5090083;28;20479;-65
2023/06/05 06:00:49;;;;;;;6.28;5.18;;;18.00;56.40;;;;;;5073704;28;20040;-65
2023/06/05 06:03:17;;;;;;;6.65;5.95;;;18.20;55.50;;;;;;5094042;28;20040;-65
2023/06/05 06:05:44;;;;;;;7.60;5.30;;;18.30;54.60;;;;;;5118394;27;20643;-67
2023/06/05 06:08:13;;;;;;;7.00;6.30;;;18.40;54.20;;;;;;5077863;28;20093;-67
2023/06/05 06:10:40;;;;;;;7.15;5.95;;;18.40;53.80;;;;;;5094282;28;20040;-68
2023/06/05 06:13:06;;;;;;;6.13;5.07;;;18.40;53.80;;;;;;5124130;27;20040;-68
2023/06/05 06:15:32;;;;;;;7.78;6.22;;;18.40;53.60;;;;;;5094550;28;20040;-68
2023/06/05 06:18:02;;;;;;;8.63;6.35;;;18.30;53.50;;;;;;5094616;28;20458;-68
2023/06/05 06:20:28;;;;;;;10.13;6.82;;;18.20;53.30;;;;;;5127915;27;20036;-68
2023/06/05 06:22:54;;;;;;;6.13;5.53;;;18.00;53.40;;;;;;5126114;27;20051;-69
2023/06/05 06:25:21;;;;;;;7.38;6.22;;;17.90;53.90;;;;;;5091994;28;20040;-68
2023/06/05 06:27:48;;;;;;;6.68;5.90;;;17.80;54.30;;;;;;5077193;28;20395;-68
2023/06/05 06:30:14;;;;;;;5.93;5.30;;;17.70;54.40;;;;;;5116386;27;20040;-69
2023/06/05 06:32:40;;;;;;;7.30;6.22;;;17.60;55.10;;;;;;5077034;28;20059;-68
2023/06/05 06:35:07;;;;;;;7.32;6.47;;;17.60;55.50;;;;;;5094304;28;20028;-68
2023/06/05 06:37:33;;;;;;;7.63;5.63;;;17.60;55.80;;;;;;5058791;28;20391;-68
2023/06/05 06:39:59;;;;;;;6.78;6.07;;;17.60;55.50;;;;;;5077075;28;20067;-68
2023/06/05 06:42:27;;;;;;;7.65;6.10;;;17.70;55.10;;;;;;5122874;27;20076;-68
2023/06/05 06:44:55;;;;;;;6.38;5.07;;;17.60;55.10;;;;;;5120926;27;20040;-68
2023/06/05 06:47:22;;;;;;;6.38;4.93;;;17.70;55.40;;;;;;5120421;27;20036;-68
2023/06/05 06:49:48;;;;;;;7.30;5.55;;;17.70;55.30;;;;;;5126104;27;20036;-66
2023/06/05 06:52:14;;;;;;;7.28;5.43;;;17.70;54.90;;;;;;5093765;28;20055;-65
2023/06/05 06:54:40;;;;;;;6.13;4.25;;;17.70;54.90;;;;;;5120465;27;20077;-65
2023/06/05 06:57:06;;;;;;;6.75;4.28;;;17.80;55.00;;;;;;5076502;28;20411;-65
2023/06/05 06:59:32;;;;;;;4.97;3.80;;;17.80;54.70;;;;;;5076872;28;20044;-66
2023/06/05 07:02:16;;;;;;;6.78;4.28;;;17.90;54.50;;;;;;5076743;28;20039;-67
2023/06/05 07:04:43;;;;;;;5.82;4.20;;;18.00;54.30;;;;;;5121670;27;20044;-67
2023/06/05 07:07:14;;;;;;;5.28;3.85;;;18.00;54.00;;;;;;5077118;28;20072;-67
2023/06/05 07:09:44;;;;;;;4.63;3.25;;;18.10;54.20;;;;;;5117718;27;20043;-67
2023/06/05 07:12:11;;;;;;;7.88;4.30;;;18.10;53.80;;;;;;5119228;27;20404;-67
2023/06/05 07:14:38;;;;;;;4.03;2.97;;;18.20;53.60;;;;;;5112094;27;20048;-68
2023/06/05 07:17:04;;;;;;;4.05;3.15;;;18.30;53.10;;;;;;5127345;27;20097;-68
2023/06/05 07:19:31;;;;;;;4.07;3.20;;;18.50;53.00;;;;;;5094174;28;20539;-68
2023/06/05 07:21:58;;;;;;;4.32;3.08;;;18.50;52.70;;;;;;5093305;28;20040;-68
2023/06/05 07:24:28;;;;;;;4.28;3.70;;;18.70;52.80;;;;;;5121173;27;20505;-68
2023/06/05 07:26:56;;;;;;;4.55;2.85;;;18.90;52.50;;;;;;5076217;28;20086;-68
2023/06/05 07:29:25;;;;;;;3.75;2.72;;;19.10;52.00;;;;;;5113500;27;20380;-69
2023/06/05 07:31:52;;;;;;;4.75;2.92;;;19.30;51.30;;;;;;5124670;27;20028;-69
2023/06/05 07:34:22;;;;;;;3.05;2.38;;;19.40;51.30;;;;;;5122102;27;20032;-68
2023/06/05 07:36:51;;;;;;;4.47;3.00;;;19.60;50.70;;;;;;5093990;28;20483;-68
2023/06/05 07:39:17;;;;;;;4.28;2.50;;;19.70;49.80;;;;;;5123537;27;20040;-68
2023/06/05 07:41:43;;;;;;;3.60;2.40;;;19.90;49.90;;;;;;5094319;28;20470;-68
2023/06/05 07:44:10;;;;;;;3.60;2.30;;;20.00;49.50;;;;;;5119711;27;20131;-68
2023/06/05 07:46:36;;;;;;;4.90;2.88;;;20.20;49.20;;;;;;5113786;27;20487;-68
2023/06/05 07:49:02;;;;;;;3.20;2.30;;;20.40;49.20;;;;;;5075722;28;20546;-69
2023/06/05 07:51:28;;;;;;;3.42;2.33;;;20.60;48.90;;;;;;5122764;27;20123;-68
2023/06/05 07:53:54;;;;;;;5.97;2.40;;;20.70;48.60;;;;;;5122640;27;20096;-68
2023/06/05 07:56:23;;;;;;;3.92;2.47;;;20.90;48.60;;;;;;5092215;28;20083;-68
2023/06/05 07:58:49;;;;;;;3.35;2.00;;;21.10;48.30;;;;;;5123840;27;20070;-68
2023/06/05 08:01:15;;;;;;;3.53;2.20;;;21.20;47.10;;;;;;5095355;28;20044;-69
2023/06/05 08:03:43;;;;;;;4.47;2.28;;;21.40;47.40;;;;;;5092120;28;20044;-68
2023/06/05 08:06:10;;;;;;;3.45;2.08;;;21.60;46.50;;;;;;5075215;28;20044;-68
2023/06/05 08:08:35;;;;;;;2.70;2.05;;;21.70;46.00;;;;;;5092547;28;20052;-68
2023/06/05 08:11:01;;;;;;;2.92;2.17;;;21.80;45.80;;;;;;5092497;28;20043;-68
2023/06/05 08:13:27;;;;;;;3.83;2.10;;;21.90;45.60;;;;;;5092234;28;20490;-68
2023/06/05 08:15:53;;;;;;;3.08;2.13;;;22.00;45.50;;;;;;5110052;27;20078;-68
2023/06/05 08:18:18;;;;;;;3.55;2.42;;;22.10;45.00;;;;;;5089325;28;20074;-68
2023/06/05 08:20:44;;;;;;;3.03;2.20;;;22.10;44.70;;;;;;5091902;28;20036;-68
2023/06/05 08:23:10;;;;;;;3.70;2.15;;;22.20;44.70;;;;;;5074934;28;20039;-69
2023/06/05 08:25:36;;;;;;;4.13;2.60;;;22.30;44.40;;;;;;5091699;28;20040;-69
2023/06/05 08:28:02;;;;;;;3.53;2.75;;;22.30;44.40;;;;;;5117618;27;20062;-69
2023/06/05 08:30:28;;;;;;;3.70;2.28;;;22.30;43.90;;;;;;5125512;27;20443;-70
2023/06/05 08:32:54;;;;;;;2.35;1.85;;;22.40;44.00;;;;;;5114205;27;20527;-69
2023/06/05 08:35:19;;;;;;;3.67;2.13;;;22.40;43.70;;;;;;5091635;28;20036;-69
2023/06/05 08:37:45;;;;;;;3.10;2.47;;;22.40;43.70;;;;;;5074929;28;20068;-69
2023/06/05 08:40:12;;;;;;;3.03;2.22;;;22.50;43.20;;;;;;5074561;28;20032;-69
2023/06/05 08:42:38;;;;;;;3.70;1.85;;;22.50;43.40;;;;;;5093159;28;20452;-69
2023/06/05 08:45:08;;;;;;;3.58;2.20;;;22.50;43.60;;;;;;5093085;28;20032;-66
2023/06/05 08:47:37;;;;;;;3.17;2.35;;;22.50;43.10;;;;;;5125082;27;20429;-67
2023/06/05 08:50:06;;;;;;;3.95;2.33;;;22.60;43.30;;;;;;5092767;28;20040;-67
2023/06/05 08:52:38;;;;;;;2.97;2.25;;;22.70;43.10;;;;;;5090969;28;20434;-67
2023/06/05 08:55:06;;;;;;;3.35;2.50;;;22.70;43.00;;;;;;5090544;28;20109;-67
2023/06/05 08:57:37;;;;;;;3.60;1.95;;;22.80;42.20;;;;;;5091302;28;20040;-66
2023/06/05 09:00:07;;;;;;;3.13;1.90;;;22.80;43.00;;;;;;5091109;28;20051;-66
2023/06/05 09:02:47;;;;;;;2.97;2.17;;;22.90;42.90;;;;;;5109292;28;20052;-66
2023/06/05 09:05:17;;;;;;;2.58;2.13;;;22.90;42.90;;;;;;5090220;28;20234;-67
2023/06/05 09:07:43;;;;;;;3.63;2.20;;;22.90;42.90;;;;;;5089674;28;20112;-67
2023/06/05 09:10:22;;;;;;;3.85;2.40;;;22.90;42.90;;;;;;5085382;28;20036;-66
2023/06/05 09:12:57;;;;;;;7.10;2.28;;;22.90;42.20;;;;;;5111676;27;20044;-67
2023/06/05 09:15:28;;;;;;;3.22;2.30;;;23.00;42.20;;;;;;5116732;27;20491;-66
2023/06/05 09:18:15;;;;;;;2.78;2.00;;;23.00;42.20;;;;;;5113378;27;20035;-67
2023/06/05 09:20:45;;;;;;;2.08;1.75;;;23.10;42.10;;;;;;5102479;28;20423;-66
2023/06/05 09:23:28;;;;;;;2.72;2.05;;;23.10;42.30;;;;;;5113104;27;20101;-66
2023/06/05 09:25:59;;;;;;;3.03;2.05;;;23.20;42.40;;;;;;5117487;27;20105;-66
2023/06/05 09:28:26;;;;;;;2.47;1.80;;;23.30;41.70;;;;;;5084776;28;20040;-66
2023/06/05 09:31:00;;;;;;;3.30;2.30;;;23.30;42.10;;;;;;5118032;27;20044;-67
2023/06/05 09:33:34;;;;;;;3.30;2.13;;;23.40;41.70;;;;;;5084882;28;20082;-66
2023/06/05 09:36:06;;;;;;;3.22;2.92;;;23.60;42.00;;;;;;5085937;28;20456;-66
2023/06/05 09:38:33;;;;;;;3.47;2.50;;;23.60;41.60;;;;;;5114467;27;20065;-66
2023/06/05 09:41:06;;;;;;;2.83;2.00;;;23.70;41.30;;;;;;5118136;27;20044;-67
2023/06/05 09:43:33;;;;;;;2.90;2.10;;;23.80;41.20;;;;;;5084496;28;20134;-67
2023/06/05 09:45:59;;;;;;;3.28;2.67;;;23.90;41.20;;;;;;5084903;28;20044;-66
2023/06/05 09:48:27;;;;;;;3.22;1.98;;;23.90;40.30;;;;;;5114684;27;20236;-66
2023/06/05 09:50:53;;;;;;;6.07;2.42;;;23.90;40.60;;;;;;5115671;28;20093;-67
2023/06/05 09:53:21;;;;;;;4.43;2.10;;;23.90;40.30;;;;;;5084729;28;20043;-66
2023/06/05 09:55:47;;;;;;;2.67;1.85;;;23.90;40.90;;;;;;5084417;28;20048;-66
2023/06/05 09:58:14;;;;;;;3.25;1.77;;;24.00;40.60;;;;;;5084199;28;20048;-66
2023/06/05 10:00:41;;;;;;;4.65;2.40;;;24.20;40.80;;;;;;5085588;28;20048;-67
2023/06/05 10:03:17;;;;;;;3.22;2.17;;;24.30;39.80;;;;;;5117102;28;20046;-66
2023/06/05 10:05:44;;;;;;;4.13;2.30;;;24.40;39.10;;;;;;5084291;28;20054;-66
2023/06/05 10:08:13;;;;;;;3.22;2.00;;;24.50;38.60;;;;;;5113698;28;20121;-66
2023/06/05 10:10:39;;;;;;;3.63;1.92;;;24.50;39.00;;;;;;5115021;28;20145;-66
2023/06/05 10:13:05;;;;;;;4.30;2.30;;;24.60;38.90;;;;;;5095343;28;20048;-66
2023/06/05 10:15:32;;;;;;;3.40;2.88;;;24.60;38.90;;;;;;5067957;28;20040;-67
2023/06/05 10:17:58;;;;;;;3.00;1.90;;;24.60;38.50;;;;;;5113820;28;20398;-66
2023/06/05 10:20:24;;;;;;;5.95;3.10;;;24.60;39.30;;;;;;5116361;28;20040;-66
2023/06/05 10:22:51;;;;;;;2.83;2.38;;;24.70;39.10;;;;;;5108653;28;20040;-66
2023/06/05 10:25:19;;;;;;;3.00;2.10;;;24.70;39.10;;;;;;5085487;28;20032;-66
2023/06/05 10:28:01;;;;;;;2.97;2.00;;;24.70;38.50;;;;;;5116962;28;20091;-66
2023/06/05 10:30:41;;;;;;;4.07;2.60;;;24.80;39.00;;;;;;5084086;28;20794;-66
2023/06/05 10:33:26;;;;;;;5.13;2.97;;;24.80;39.40;;;;;;5067897;28;20036;-66
2023/06/05 10:36:26;;;;;;;4.18;2.35;;;25.00;39.20;;;;;;5101116;28;20051;-66
2023/06/05 10:38:52;;;;;;;3.65;2.70;;;25.10;39.00;;;;;;5085332;28;20044;-66
2023/06/05 10:41:18;;;;;;;3.63;2.70;;;25.20;38.50;;;;;;5116789;28;20466;-66
2023/06/05 10:43:49;;;;;;;3.70;2.10;;;25.20;37.40;;;;;;5084195;28;20052;-66
2023/06/05 10:46:30;;;;;;;4.38;2.90;;;25.10;37.80;;;;;;5097914;28;20036;-66
2023/06/05 10:49:14;;;;;;;4.50;2.50;;;25.10;38.00;;;;;;5102483;28;20044;-66
2023/06/05 10:51:46;;;;;;;6.55;3.38;;;25.10;38.10;;;;;;5119313;27;20083;-66
2023/06/05 10:54:24;;;;;;;4.38;2.88;;;25.10;37.20;;;;;;5087427;28;20072;-66
2023/06/05 10:56:59;;;;;;;3.25;2.42;;;25.00;37.30;;;;;;5114893;27;20052;-66
2023/06/05 10:59:26;;;;;;;2.70;2.20;;;24.80;37.60;;;;;;5116807;27;20040;-66
2023/06/05 11:02:04;;;;;;;4.82;2.80;;;24.80;38.40;;;;;;5105037;28;20142;-66
2023/06/05 11:04:46;;;;;;;4.22;2.58;;;24.90;38.40;;;;;;5120164;27;20063;-66
2023/06/05 11:07:21;;;;;;;4.75;2.83;;;24.80;38.30;;;;;;5087662;28;20040;-66
2023/06/05 11:10:05;;;;;;;3.88;2.65;;;24.90;38.40;;;;;;5088776;28;20028;-66
2023/06/05 11:12:42;;;;;;;3.85;2.85;;;24.90;38.10;;;;;;5118840;27;20071;-67
2023/06/05 11:15:26;;;;;;;3.92;2.55;;;24.90;38.10;;;;;;5118041;27;20436;-66
2023/06/05 11:17:52;;;;;;;4.68;3.67;;;24.90;37.90;;;;;;5104089;28;20055;-67
2023/06/05 11:20:21;;;;;;;3.95;2.67;;;24.90;38.30;;;;;;5088730;28;20130;-67
2023/06/05 11:22:53;;;;;;;5.70;2.95;;;25.00;38.40;;;;;;5118043;27;20377;-67
2023/06/05 11:25:21;;;;;;;4.18;3.47;;;25.00;38.20;;;;;;5086939;28;20446;-66
2023/06/05 11:27:49;;;;;;;5.05;2.90;;;25.00;37.80;;;;;;5069561;28;20054;-68
2023/06/05 11:30:17;;;;;;;5.45;2.70;;;25.00;38.00;;;;;;5117419;27;20044;-68
2023/06/05 11:32:44;;;;;;;3.30;2.10;;;25.00;38.00;;;;;;5118951;27;20043;-68
2023/06/05 11:35:10;;;;;;;3.13;2.00;;;25.00;38.60;;;;;;5070535;28;20032;-68
2023/06/05 11:37:37;;;;;;;5.40;2.40;;;25.10;38.30;;;;;;5119990;27;20032;-69
2023/06/05 11:40:05;;;;;;;4.15;2.30;;;25.10;37.80;;;;;;5074422;28;20040;-69
2023/06/05 11:42:31;;;;;;;3.88;2.50;;;25.10;37.80;;;;;;5093824;28;20064;-69
2023/06/05 11:44:57;;;;;;;4.72;2.92;;;25.10;37.20;;;;;;5093077;28;20123;-69
2023/06/05 11:47:30;;;;;;;4.68;2.90;;;25.20;38.30;;;;;;5117685;27;20044;-69
2023/06/05 11:50:12;;;;;;;3.60;2.47;;;25.20;38.30;;;;;;5075945;28;20395;-69
2023/06/05 11:52:39;;;;;;;3.92;2.50;;;25.20;38.00;;;;;;5092956;28;20129;-69
2023/06/05 11:55:18;;;;;;;3.63;2.70;;;25.20;37.80;;;;;;5075866;28;20063;-69
2023/06/05 11:57:51;;;;;;;4.18;3.17;;;25.30;37.70;;;;;;5125164;27;20073;-69
2023/06/05 12:00:23;;;;;;;3.88;2.17;;;25.30;38.00;;;;;;5072729;28;20036;-69
2023/06/05 12:02:49;;;;;;;4.95;2.53;;;25.40;37.80;;;;;;5093279;28;20086;-69
2023/06/05 12:05:15;;;;;;;4.68;3.25;;;25.40;37.70;;;;;;5092893;28;20055;-69
2023/06/05 12:07:41;;;;;;;5.80;3.05;;;25.50;38.30;;;;;;5092486;28;20468;-69
2023/06/05 12:10:09;;;;;;;2.85;2.25;;;25.50;38.10;;;;;;5116990;27;20036;-69
2023/06/05 12:12:35;;;;;;;3.03;2.38;;;25.50;38.60;;;;;;5092233;28;20044;-69
2023/06/05 12:15:21;;;;;;;4.10;2.20;;;25.70;38.60;;;;;;5114471;27;20137;-69
2023/06/05 12:17:55;;;;;;;6.03;2.80;;;25.90;37.70;;;;;;5110138;27;20086;-69
2023/06/05 12:20:21;;;;;;;4.43;2.70;;;25.90;37.10;;;;;;5092242;28;20040;-69
2023/06/05 12:22:47;;;;;;;6.03;3.00;;;25.80;37.20;;;;;;5117733;27;20040;-69
2023/06/05 12:25:22;;;;;;;4.10;2.72;;;25.80;37.10;;;;;;5091598;28;20047;-69
2023/06/05 12:27:49;;;;;;;4.18;2.17;;;25.80;37.00;;;;;;5091443;28;20036;-69
2023/06/05 12:30:18;;;;;;;3.78;2.78;;;25.60;37.60;;;;;;5116878;27;20043;-69
2023/06/05 12:32:45;;;;;;;4.28;2.25;;;25.60;38.00;;;;;;5075252;28;20062;-69
2023/06/05 12:35:24;;;;;;;5.28;3.13;;;25.50;37.80;;;;;;5092177;28;20421;-69
2023/06/05 12:37:51;;;;;;;4.03;2.83;;;25.50;37.70;;;;;;5074447;28;20183;-68
2023/06/05 12:40:20;;;;;;;4.65;3.03;;;25.50;37.30;;;;;;5091867;28;20487;-68
2023/06/05 12:42:47;;;;;;;5.43;2.95;;;25.50;37.20;;;;;;5059110;28;20191;-68
2023/06/05 12:45:13;;;;;;;4.13;2.95;;;25.50;37.10;;;;;;5091724;28;20106;-68
2023/06/05 12:47:40;;;;;;;6.25;3.58;;;25.50;37.90;;;;;;5092435;28;20048;-68
2023/06/05 12:50:09;;;;;;;4.30;2.67;;;25.50;37.80;;;;;;5092703;28;20042;-68
2023/06/05 12:52:35;;;;;;;3.20;2.30;;;25.60;37.70;;;;;;5092513;28;20117;-68